createdAt,value
2022-08-11T00:02:06.602Z,4.70
2022-08-11T00:04:44.871Z,2.20
2022-08-11T00:07:14.797Z,3.80
2022-08-11T00:09:44.573Z,2.90
2022-08-11T00:12:16.722Z,4.40
2022-08-11T00:14:46.583Z,6.20
2022-08-11T00:17:17.848Z,3.80
2022-08-11T00:20:11.969Z,3.70
2022-08-11T00:22:45.633Z,3.50
2022-08-11T00:25:17.496Z,3.40
2022-08-11T00:27:48.511Z,4.60
2022-08-11T00:30:20.596Z,6.50
2022-08-11T00:32:58.401Z,4.10
2022-08-11T00:35:54.864Z,5.40
2022-08-11T00:38:29.445Z,3.80
2022-08-11T00:41:08.646Z,3.70
2022-08-11T00:43:51.491Z,5.20
2022-08-11T00:46:35.594Z,3.10
2022-08-11T00:49:17.258Z,4.60
2022-08-11T00:52:05.736Z,4.60
2022-08-11T00:55:01.968Z,4.20
2022-08-11T00:57:56.875Z,4.00
2022-08-11T01:00:33.353Z,5.00
2022-08-11T01:03:31.307Z,5.90
2022-08-11T01:06:32.521Z,5.00
2022-08-11T01:09:33.360Z,4.60
2022-08-11T01:12:29.309Z,5.60
2022-08-11T01:15:30.620Z,6.30
2022-08-11T01:18:51.454Z,6.00
2022-08-11T01:22:11.654Z,8.10
2022-08-11T01:25:18.434Z,6.40
2022-08-11T01:28:28.072Z,8.80
2022-08-11T01:31:26.890Z,8.00
2022-08-11T01:34:30.775Z,7.30
2022-08-11T01:37:16.335Z,7.50
2022-08-11T01:40:14.936Z,6.80
2022-08-11T01:43:42.114Z,7.90
2022-08-11T01:46:17.967Z,7.30
2022-08-11T01:50:01.034Z,8.30
2022-08-11T01:52:15.276Z,6.20
2022-08-11T01:54:50.061Z,10.50
2022-08-11T02:00:11.426Z,6.70
2022-08-11T02:02:53.677Z,7.60
2022-08-11T02:05:34.065Z,6.20
2022-08-11T02:08:15.154Z,6.00
2022-08-11T02:11:12.779Z,7.00
2022-08-11T02:13:50.172Z,7.30
2022-08-11T02:16:36.368Z,8.10
2022-08-11T02:19:33.635Z,8.60
2022-08-11T02:22:27.376Z,10.00
2022-08-11T02:25:03.069Z,9.00
2022-08-11T02:27:41.126Z,9.10
2022-08-11T02:30:14.617Z,13.40
2022-08-11T02:33:12.042Z,7.70
2022-08-11T02:35:50.430Z,7.70
2022-08-11T02:38:28.132Z,9.90
2022-08-11T02:41:28.395Z,8.30
2022-08-11T02:44:15.507Z,8.90
2022-08-11T02:46:57.892Z,8.40
2022-08-11T02:50:02.608Z,10.00
2022-08-11T02:52:45.796Z,8.40
2022-08-11T02:55:50.978Z,7.60
2022-08-11T02:58:27.113Z,8.10
2022-08-11T03:01:06.862Z,8.10
2022-08-11T03:03:45.260Z,8.40
2022-08-11T03:06:27.239Z,7.90
2022-08-11T03:09:04.441Z,8.30
2022-08-11T03:12:11.200Z,6.40
2022-08-11T03:15:08.515Z,9.10
2022-08-11T03:17:50.549Z,6.80
2022-08-11T03:20:38.194Z,8.30
2022-08-11T03:25:58.852Z,6.70
2022-08-11T03:28:35.209Z,7.50
2022-08-11T03:31:19.443Z,7.20
2022-08-11T03:34:06.548Z,9.20
2022-08-11T03:37:58.256Z,8.60
2022-08-11T03:41:02.404Z,9.20
2022-08-11T03:43:50.318Z,5.90
2022-08-11T03:46:51.468Z,6.70
2022-08-11T03:49:35.574Z,5.70
2022-08-11T03:52:22.295Z,6.90
2022-08-11T03:55:02.369Z,5.30
2022-08-11T03:58:02.580Z,7.00
2022-08-11T04:00:56.237Z,4.40
2022-08-11T04:03:59.841Z,5.50
2022-08-11T04:07:05.898Z,9.30
2022-08-11T04:10:10.582Z,4.10
2022-08-11T04:13:14.255Z,5.40
2022-08-11T04:16:15.994Z,6.00
2022-08-11T04:19:34.224Z,5.50
2022-08-11T04:22:38.059Z,6.10
2022-08-11T04:25:57.453Z,6.90
2022-08-11T04:28:52.155Z,11.70
2022-08-11T04:31:49.563Z,5.70
2022-08-11T04:34:40.514Z,6.20
2022-08-11T04:44:31.307Z,8.70
2022-08-11T04:48:01.842Z,8.50
2022-08-11T04:51:17.478Z,5.80
2022-08-11T04:54:16.920Z,9.50
2022-08-11T04:57:07.095Z,8.50
2022-08-11T05:00:23.793Z,8.50
2022-08-11T05:03:30.981Z,8.70
2022-08-11T05:06:42.297Z,8.30
2022-08-11T05:09:47.223Z,9.70
2022-08-11T05:12:36.690Z,8.40
2022-08-11T05:15:30.516Z,9.90
2022-08-11T05:18:26.045Z,14.00
2022-08-11T05:21:21.555Z,8.40
2022-08-11T05:24:30.811Z,14.80
2022-08-11T05:27:23.853Z,16.10
2022-08-11T05:30:20.795Z,9.50
2022-08-11T05:33:17.088Z,8.00
2022-08-11T05:36:01.722Z,6.90
2022-08-11T05:38:54.372Z,5.90
2022-08-11T05:41:45.180Z,8.10
2022-08-11T05:44:39.930Z,5.50
2022-08-11T05:47:29.275Z,8.20
2022-08-11T05:50:17.588Z,5.60
2022-08-11T05:53:20.408Z,8.20
2022-08-11T05:56:10.397Z,4.80
2022-08-11T05:58:43.073Z,5.20
2022-08-11T06:01:21.901Z,6.20
2022-08-11T06:04:09.102Z,4.00
2022-08-11T06:07:01.401Z,6.80
2022-08-11T06:09:55.378Z,7.20
2022-08-11T06:12:32.591Z,6.30
2022-08-11T06:15:09.418Z,5.90
2022-08-11T06:17:52.827Z,5.40
2022-08-11T06:20:25.795Z,5.10
2022-08-11T06:23:03.114Z,5.50
2022-08-11T06:25:35.795Z,8.00
2022-08-11T06:28:20.343Z,5.20
2022-08-11T06:31:04.599Z,7.40
2022-08-11T06:33:43.981Z,5.10
2022-08-11T06:36:34.125Z,5.60
2022-08-11T06:39:21.100Z,6.70
2022-08-11T06:42:00.533Z,4.40
2022-08-11T06:44:39.375Z,5.90
2022-08-11T06:47:17.739Z,4.10
2022-08-11T06:50:11.049Z,5.20
2022-08-11T06:52:47.918Z,3.60
2022-08-11T06:55:58.063Z,3.90
2022-08-11T06:58:49.892Z,3.40
2022-08-11T07:01:37.329Z,4.10
2022-08-11T07:04:10.630Z,3.60
2022-08-11T07:07:36.832Z,4.70
2022-08-11T07:10:45.094Z,7.60
2022-08-11T07:13:44.212Z,3.70
2022-08-11T07:16:24.349Z,5.50
2022-08-11T07:19:19.688Z,4.70
2022-08-11T07:22:12.019Z,8.00
2022-08-11T07:25:03.466Z,4.60
2022-08-11T07:28:01.553Z,4.90
2022-08-11T07:30:32.996Z,6.40
2022-08-11T07:33:05.438Z,5.50
2022-08-11T07:35:39.002Z,3.70
2022-08-11T07:38:22.059Z,4.70
2022-08-11T07:40:53.019Z,5.50
2022-08-11T07:43:26.591Z,6.20
2022-08-11T07:46:15.689Z,4.20
2022-08-11T07:49:03.592Z,4.80
2022-08-11T07:51:51.434Z,4.00
2022-08-11T07:54:21.570Z,4.60
2022-08-11T07:56:54.709Z,3.40
2022-08-11T08:00:00.131Z,3.80
2022-08-11T08:02:53.742Z,4.30
2022-08-11T08:05:42.144Z,4.70
2022-08-11T08:08:33.573Z,3.00
2022-08-11T08:11:27.494Z,5.50
2022-08-11T08:14:15.855Z,3.90
2022-08-11T08:17:05.458Z,3.70
2022-08-11T08:19:43.000Z,3.50
2022-08-11T08:22:48.589Z,3.70
2022-08-11T08:25:20.226Z,3.10
2022-08-11T08:27:52.251Z,5.90
2022-08-11T08:30:43.163Z,4.10
2022-08-11T08:33:20.473Z,2.40
2022-08-11T08:36:12.317Z,3.40
2022-08-11T08:38:46.998Z,3.00
2022-08-11T08:41:22.328Z,2.90
2022-08-11T08:43:55.809Z,5.10
2022-08-11T08:46:39.004Z,3.10
2022-08-11T08:49:18.496Z,3.30
2022-08-11T08:52:30.883Z,2.80
2022-08-11T08:54:57.087Z,3.80
2022-08-11T09:00:20.718Z,2.90
2022-08-11T09:02:53.185Z,2.90
2022-08-11T09:05:25.465Z,3.40
2022-08-11T09:07:57.637Z,3.50
2022-08-11T09:10:29.908Z,4.70
2022-08-11T09:13:04.555Z,2.90
2022-08-11T09:15:43.738Z,3.60
2022-08-11T09:18:13.550Z,4.00
2022-08-11T09:20:43.952Z,2.90
2022-08-11T09:24:07.929Z,4.80
2022-08-11T09:26:42.512Z,4.40
2022-08-11T09:29:13.883Z,4.20
2022-08-11T09:31:46.159Z,3.50
2022-08-11T09:34:17.086Z,3.50
2022-08-11T09:37:11.112Z,2.80
2022-08-11T09:40:03.360Z,3.10
2022-08-11T09:42:58.516Z,4.60
2022-08-11T09:45:35.914Z,2.90
2022-08-11T09:53:03.539Z,3.00
2022-08-11T09:55:33.414Z,2.90
2022-08-11T09:58:33.165Z,2.90
2022-08-11T10:01:07.641Z,4.20
2022-08-11T10:03:42.122Z,3.10
2022-08-11T10:06:34.746Z,4.10
2022-08-11T10:09:07.649Z,3.40
2022-08-11T10:11:41.787Z,4.40
2022-08-11T10:14:33.816Z,3.90
2022-08-11T10:17:08.343Z,3.70
2022-08-11T10:20:05.962Z,2.30
2022-08-11T10:26:57.152Z,1.90
2022-08-11T10:29:54.111Z,9.40
2022-08-11T10:32:57.271Z,5.20
2022-08-11T10:35:32.765Z,5.80
2022-08-11T10:38:17.028Z,3.80
2022-08-11T10:41:10.811Z,3.30
2022-08-11T10:44:02.904Z,3.70
2022-08-11T10:46:58.748Z,6.40
2022-08-11T10:49:39.773Z,3.70
2022-08-11T10:52:29.422Z,2.80
2022-08-11T10:55:16.817Z,3.70
2022-08-11T10:58:06.848Z,3.40
2022-08-11T11:00:38.025Z,3.40
2022-08-11T11:03:22.343Z,2.80
2022-08-11T11:06:13.289Z,5.00
2022-08-11T11:08:57.678Z,4.90
2022-08-11T11:11:55.116Z,3.90
2022-08-11T11:14:58.317Z,3.50
2022-08-11T11:17:58.819Z,3.10
2022-08-11T11:20:38.386Z,3.30
2022-08-11T11:23:20.440Z,3.70
2022-08-11T11:26:37.801Z,3.10
2022-08-11T11:29:33.273Z,4.20
2022-08-11T11:32:20.592Z,2.80
2022-08-11T11:35:30.982Z,3.50
2022-08-11T11:38:04.055Z,5.00
2022-08-11T11:40:41.930Z,4.50
2022-08-11T11:43:23.623Z,2.40
2022-08-11T11:45:57.354Z,3.60
2022-08-11T11:48:28.422Z,2.90
2022-08-11T11:51:05.369Z,4.40
2022-08-11T11:53:40.683Z,3.10
2022-08-11T11:56:17.064Z,3.50
2022-08-11T11:59:11.288Z,3.60
2022-08-11T12:01:47.070Z,2.50
2022-08-11T12:04:26.123Z,2.80
2022-08-11T12:07:19.182Z,2.90
2022-08-11T12:09:51.042Z,2.90
2022-08-11T12:12:41.669Z,2.10
2022-08-11T12:15:13.967Z,3.20
2022-08-11T12:17:43.452Z,3.30
2022-08-11T12:20:31.708Z,3.50
2022-08-11T12:23:26.055Z,2.50
2022-08-11T12:26:27.032Z,4.70
2022-08-11T12:29:00.694Z,6.30
2022-08-11T12:31:32.433Z,5.90
2022-08-11T12:34:04.830Z,3.40
2022-08-11T12:36:36.360Z,4.50
2022-08-11T12:39:24.431Z,5.40
2022-08-11T12:45:22.030Z,2.70
2022-08-11T12:48:59.879Z,3.90
2022-08-11T12:51:24.818Z,3.60
2022-08-11T12:54:00.057Z,2.30
2022-08-11T12:56:56.757Z,3.30
2022-08-11T12:59:45.534Z,5.60
2022-08-11T13:02:39.999Z,6.00
2022-08-11T13:05:23.403Z,4.20
2022-08-11T13:07:53.867Z,3.70
2022-08-11T13:10:38.946Z,4.50
2022-08-11T13:13:52.486Z,5.00
2022-08-11T13:16:02.136Z,5.60
2022-08-11T13:18:31.845Z,5.00
2022-08-11T13:21:04.789Z,3.90
2022-08-11T13:23:35.295Z,4.90
2022-08-11T13:26:07.614Z,4.30
2022-08-11T13:28:38.069Z,2.90
2022-08-11T13:31:14.989Z,3.30
2022-08-11T13:33:51.219Z,3.20
2022-08-11T13:36:29.673Z,2.80
2022-08-11T13:39:05.401Z,4.20
2022-08-11T13:41:38.848Z,2.90
2022-08-11T13:44:15.810Z,4.30
2022-08-11T13:46:53.058Z,3.20
2022-08-11T13:49:27.701Z,3.50
2022-08-11T13:52:06.125Z,2.60
2022-08-11T13:54:38.804Z,3.00
2022-08-11T13:57:13.795Z,3.70
2022-08-11T14:00:13.223Z,5.30
2022-08-11T14:02:56.199Z,3.30
2022-08-11T14:05:29.916Z,4.00
2022-08-11T14:08:02.894Z,3.10
2022-08-11T14:10:36.741Z,6.70
2022-08-11T14:13:29.031Z,3.00
2022-08-11T14:16:19.800Z,3.20
2022-08-11T14:18:55.259Z,4.20
2022-08-11T14:21:56.200Z,3.70
2022-08-11T14:24:29.084Z,5.90
2022-08-11T14:27:02.402Z,3.00
2022-08-11T14:29:48.592Z,3.70
2022-08-11T14:32:20.616Z,5.60
2022-08-11T14:34:51.056Z,5.70
2022-08-11T14:37:23.891Z,3.90
2022-08-11T14:40:02.268Z,8.30
2022-08-11T14:42:51.428Z,3.30
2022-08-11T14:45:58.166Z,2.90
2022-08-11T14:48:26.940Z,2.80
2022-08-11T14:51:00.787Z,3.60
2022-08-11T14:53:32.512Z,7.30
2022-08-11T14:56:22.233Z,3.60
2022-08-11T14:58:52.390Z,3.20
2022-08-11T15:01:39.208Z,3.20
2022-08-11T15:07:02.752Z,2.60
2022-08-11T15:09:38.870Z,5.00
2022-08-11T15:12:32.169Z,4.50
2022-08-11T15:15:27.335Z,2.70
2022-08-11T15:17:59.728Z,3.30
2022-08-11T15:20:53.591Z,4.20
2022-08-11T15:23:46.132Z,4.60
2022-08-11T15:26:19.986Z,1.80
2022-08-11T15:29:23.616Z,4.00
2022-08-11T15:32:12.700Z,2.60
2022-08-11T15:35:03.953Z,5.60
2022-08-11T15:37:38.802Z,4.00
2022-08-11T15:40:36.507Z,4.70
2022-08-11T15:43:32.753Z,4.90
2022-08-11T15:46:11.121Z,5.20
2022-08-11T15:48:50.568Z,4.30
2022-08-11T15:51:31.675Z,6.60
2022-08-11T15:54:11.014Z,5.10
2022-08-11T15:56:43.690Z,3.30
2022-08-11T15:59:41.897Z,3.10
2022-08-11T16:02:35.632Z,2.70
2022-08-11T16:05:12.768Z,5.00
2022-08-11T16:10:21.293Z,4.00
2022-08-11T16:16:11.628Z,2.70
2022-08-11T16:18:51.767Z,3.00
2022-08-11T16:21:33.838Z,6.20
2022-08-11T16:24:08.302Z,3.30
2022-08-11T16:27:10.019Z,4.60
2022-08-11T16:29:43.926Z,5.60
2022-08-11T16:35:16.910Z,4.20
2022-08-11T16:38:07.705Z,5.50
2022-08-11T16:40:39.189Z,3.10
2022-08-11T16:43:34.296Z,2.90
2022-08-11T16:46:23.530Z,4.40
2022-08-11T16:49:00.883Z,3.20
2022-08-11T16:51:32.606Z,3.30
2022-08-11T16:54:10.137Z,3.00
2022-08-11T16:56:44.104Z,4.00
2022-08-11T16:59:22.130Z,2.70
2022-08-11T17:01:56.437Z,3.40
2022-08-11T17:05:00.021Z,4.30
2022-08-11T17:07:49.181Z,6.10
2022-08-11T17:10:53.286Z,4.80
2022-08-11T17:13:34.132Z,2.90
2022-08-11T17:16:22.266Z,5.20
2022-08-11T17:19:05.722Z,3.60
2022-08-11T17:21:57.916Z,4.60
2022-08-11T17:25:02.543Z,3.70
2022-08-11T17:27:48.128Z,4.60
2022-08-11T17:30:20.846Z,4.90
2022-08-11T17:33:12.272Z,2.90
2022-08-11T17:35:44.219Z,4.40
2022-08-11T17:38:17.261Z,4.30
2022-08-11T17:41:04.083Z,3.70
2022-08-11T17:43:52.433Z,6.70
2022-08-11T17:46:45.443Z,8.50
2022-08-11T17:49:19.808Z,6.10
2022-08-11T17:52:09.549Z,6.70
2022-08-11T17:54:59.816Z,7.80
2022-08-11T17:57:48.962Z,7.30
2022-08-11T18:00:19.460Z,7.00
2022-08-11T18:03:08.835Z,10.10
2022-08-11T18:05:44.433Z,5.70
2022-08-11T18:08:39.632Z,7.70
2022-08-11T18:12:06.811Z,5.60
2022-08-11T18:14:39.547Z,5.70
2022-08-11T18:17:28.947Z,9.30
2022-08-11T18:20:17.171Z,4.60
2022-08-11T18:23:09.263Z,7.20
2022-08-11T18:26:01.928Z,6.70
2022-08-11T18:29:14.425Z,8.70
2022-08-11T18:32:09.091Z,11.30
2022-08-11T18:35:05.542Z,6.70
2022-08-11T18:38:09.672Z,7.00
2022-08-11T18:40:57.883Z,6.70
2022-08-11T18:43:53.742Z,5.60
2022-08-11T18:46:43.328Z,6.40
2022-08-11T18:50:03.819Z,7.00
2022-08-11T18:52:49.104Z,4.90
2022-08-11T18:55:42.444Z,6.60
2022-08-11T18:58:39.989Z,4.20
2022-08-11T19:01:31.084Z,5.00
2022-08-11T19:04:21.225Z,3.80
2022-08-11T19:07:18.769Z,3.80
2022-08-11T19:10:09.649Z,5.90
2022-08-11T19:13:01.311Z,2.90
2022-08-11T19:15:51.192Z,3.00
2022-08-11T19:18:42.886Z,6.70
2022-08-11T19:21:33.781Z,3.70
2022-08-11T19:24:28.438Z,5.80
2022-08-11T19:27:18.339Z,3.10
2022-08-11T19:30:13.771Z,6.10
2022-08-11T19:33:03.563Z,3.40
2022-08-11T19:36:05.876Z,4.50
2022-08-11T19:38:57.560Z,5.50
2022-08-11T19:42:00.994Z,6.20
2022-08-11T19:44:57.281Z,2.80
2022-08-11T19:47:46.875Z,4.20
2022-08-11T19:50:38.786Z,3.20
2022-08-11T19:53:43.917Z,4.50
2022-08-11T19:56:48.753Z,6.40
2022-08-11T19:59:45.735Z,3.50
2022-08-11T20:02:35.105Z,2.40
2022-08-11T20:05:29.511Z,3.10
2022-08-11T20:08:30.460Z,3.20
2022-08-11T20:11:23.816Z,2.70
2022-08-11T20:14:16.779Z,4.20
2022-08-11T20:17:08.806Z,3.00
2022-08-11T20:22:59.461Z,3.00
2022-08-11T20:25:53.165Z,2.70
2022-08-11T20:28:47.117Z,3.20
2022-08-11T20:31:39.463Z,5.00
2022-08-11T20:34:33.413Z,3.00
2022-08-11T20:37:32.499Z,2.70
2022-08-11T20:40:23.845Z,3.10
2022-08-11T20:44:05.676Z,3.50
2022-08-11T20:46:34.819Z,4.90
2022-08-11T20:49:42.328Z,2.70
2022-08-11T20:52:49.083Z,3.40
2022-08-11T20:55:52.111Z,2.40
2022-08-11T21:01:54.342Z,3.90
2022-08-11T21:04:54.038Z,3.60
2022-08-11T21:07:56.830Z,5.40
2022-08-11T21:11:14.317Z,4.70
2022-08-11T21:14:23.285Z,4.70
2022-08-11T21:20:56.974Z,3.70
2022-08-11T21:24:13.151Z,3.80
2022-08-11T21:27:24.789Z,6.60
2022-08-11T21:30:35.490Z,4.40
2022-08-11T21:37:09.468Z,3.90
2022-08-11T21:40:18.728Z,4.90
2022-08-11T21:43:17.870Z,5.70
2022-08-11T21:49:05.996Z,4.30
2022-08-11T21:52:13.326Z,7.80
2022-08-11T21:55:01.542Z,4.30
2022-08-11T21:57:50.823Z,3.70
2022-08-11T22:00:38.487Z,5.30
2022-08-11T22:03:27.040Z,4.90
2022-08-11T22:06:19.257Z,4.60
2022-08-11T22:09:08.931Z,4.60
2022-08-11T22:12:29.621Z,4.70
2022-08-11T22:15:05.050Z,3.70
2022-08-11T22:17:57.881Z,4.70
2022-08-11T22:20:48.404Z,4.60
2022-08-11T22:23:37.711Z,4.30
2022-08-11T22:26:27.728Z,4.30
2022-08-11T22:29:14.919Z,4.40
2022-08-11T22:32:03.890Z,4.20
2022-08-11T22:34:53.752Z,4.60
2022-08-11T22:37:43.466Z,3.20
2022-08-11T22:40:48.511Z,2.60
2022-08-11T22:43:37.343Z,3.30
2022-08-11T22:46:25.864Z,4.10
2022-08-11T22:49:15.092Z,2.80
2022-08-11T22:52:03.995Z,3.50
2022-08-11T22:54:55.249Z,2.60
2022-08-11T22:58:00.176Z,4.10
2022-08-11T23:00:49.816Z,2.70
2022-08-11T23:03:38.711Z,4.90
2022-08-11T23:06:26.796Z,3.50
2022-08-11T23:09:15.023Z,3.20
2022-08-11T23:12:06.912Z,3.60
2022-08-11T23:14:59.458Z,4.60
2022-08-11T23:17:48.580Z,2.70
2022-08-11T23:20:42.199Z,3.20
2022-08-11T23:23:40.160Z,3.40
2022-08-11T23:26:29.484Z,2.20
2022-08-11T23:29:22.168Z,3.00
2022-08-11T23:32:11.702Z,2.60
2022-08-11T23:35:38.788Z,3.10
2022-08-11T23:38:11.630Z,3.00
2022-08-11T23:41:00.035Z,3.20
2022-08-11T23:43:49.958Z,3.00
2022-08-11T23:46:40.136Z,3.50
2022-08-11T23:49:29.936Z,2.70
2022-08-11T23:52:18.845Z,3.00
2022-08-11T23:55:08.701Z,2.80
2022-08-11T23:58:01.314Z,3.30
